sensor_id;sensor_type;location;lat;lon;timestamp;P1;durP1;ratioP1;P2;durP2;ratioP2
46116;SDS011;32591;48.102;11.772;2023-10-19T00:00:47;19.25;;;10.57;;
46116;SDS011;32591;48.102;11.772;2023-10-19T00:03:15;20.02;;;10.77;;
46116;SDS011;32591;48.102;11.772;2023-10-19T00:05:43;17.15;;;10.60;;
46116;SDS011;32591;48.102;11.772;2023-10-19T00:08:13;18.65;;;10.52;;
46116;SDS011;32591;48.102;11.772;2023-10-19T00:10:40;20.20;;;12.15;;
46116;SDS011;32591;48.102;11.772;2023-10-19T00:13:09;19.75;;;11.20;;
46116;SDS011;32591;48.102;11.772;2023-10-19T00:15:37;17.80;;;11.23;;
46116;SDS011;32591;48.102;11.772;2023-10-19T00:18:06;16.08;;;9.63;;
46116;SDS011;32591;48.102;11.772;2023-10-19T00:20:45;15.77;;;10.02;;
46116;SDS011;32591;48.102;11.772;2023-10-19T00:23:21;15.10;;;9.90;;
46116;SDS011;32591;48.102;11.772;2023-10-19T00:25:56;14.35;;;9.73;;
46116;SDS011;32591;48.102;11.772;2023-10-19T00:28:23;15.85;;;9.70;;
46116;SDS011;32591;48.102;11.772;2023-10-19T00:30:52;16.08;;;10.23;;
46116;SDS011;32591;48.102;11.772;2023-10-19T00:33:25;16.38;;;9.05;;
46116;SDS011;32591;48.102;11.772;2023-10-19T00:35:54;16.90;;;9.88;;
46116;SDS011;32591;48.102;11.772;2023-10-19T00:38:27;16.80;;;9.52;;
46116;SDS011;32591;48.102;11.772;2023-10-19T00:41:04;15.00;;;9.00;;
46116;SDS011;32591;48.102;11.772;2023-10-19T00:43:37;14.40;;;10.32;;
46116;SDS011;32591;48.102;11.772;2023-10-19T00:46:09;17.77;;;10.23;;
46116;SDS011;32591;48.102;11.772;2023-10-19T00:48:41;17.75;;;10.38;;
46116;SDS011;32591;48.102;11.772;2023-10-19T00:51:12;17.05;;;10.18;;
46116;SDS011;32591;48.102;11.772;2023-10-19T00:53:53;15.10;;;10.07;;
46116;SDS011;32591;48.102;11.772;2023-10-19T00:56:22;19.08;;;11.15;;
46116;SDS011;32591;48.102;11.772;2023-10-19T00:58:52;16.33;;;9.73;;
46116;SDS011;32591;48.102;11.772;2023-10-19T01:01:25;16.58;;;10.10;;
46116;SDS011;32591;48.102;11.772;2023-10-19T01:03:55;15.73;;;9.18;;
46116;SDS011;32591;48.102;11.772;2023-10-19T01:06:23;17.38;;;10.80;;
46116;SDS011;32591;48.102;11.772;2023-10-19T01:08:50;16.10;;;10.52;;
46116;SDS011;32591;48.102;11.772;2023-10-19T01:11:19;16.45;;;10.15;;
46116;SDS011;32591;48.102;11.772;2023-10-19T01:13:47;17.20;;;10.23;;
46116;SDS011;32591;48.102;11.772;2023-10-19T01:16:17;14.80;;;8.85;;
46116;SDS011;32591;48.102;11.772;2023-10-19T01:18:48;20.13;;;10.35;;
46116;SDS011;32591;48.102;11.772;2023-10-19T01:21:19;19.10;;;10.50;;
46116;SDS011;32591;48.102;11.772;2023-10-19T01:23:52;18.35;;;11.32;;
46116;SDS011;32591;48.102;11.772;2023-10-19T01:26:19;14.75;;;9.60;;
46116;SDS011;32591;48.102;11.772;2023-10-19T01:28:51;15.00;;;9.60;;
46116;SDS011;32591;48.102;11.772;2023-10-19T01:31:26;16.08;;;10.15;;
46116;SDS011;32591;48.102;11.772;2023-10-19T01:34:02;14.63;;;9.75;;
46116;SDS011;32591;48.102;11.772;2023-10-19T01:36:32;15.95;;;10.32;;
46116;SDS011;32591;48.102;11.772;2023-10-19T01:39:09;17.88;;;10.02;;
46116;SDS011;32591;48.102;11.772;2023-10-19T01:41:36;16.48;;;9.98;;
46116;SDS011;32591;48.102;11.772;2023-10-19T01:44:04;16.52;;;10.20;;
46116;SDS011;32591;48.102;11.772;2023-10-19T01:46:33;16.95;;;9.85;;
46116;SDS011;32591;48.102;11.772;2023-10-19T01:49:00;18.60;;;10.63;;
46116;SDS011;32591;48.102;11.772;2023-10-19T01:51:29;21.30;;;11.73;;
46116;SDS011;32591;48.102;11.772;2023-10-19T01:54:02;17.08;;;10.05;;
46116;SDS011;32591;48.102;11.772;2023-10-19T01:56:31;16.15;;;10.15;;
46116;SDS011;32591;48.102;11.772;2023-10-19T01:58:59;18.58;;;10.40;;
46116;SDS011;32591;48.102;11.772;2023-10-19T02:01:26;15.32;;;10.75;;
46116;SDS011;32591;48.102;11.772;2023-10-19T02:04:00;16.50;;;10.52;;
46116;SDS011;32591;48.102;11.772;2023-10-19T02:06:31;16.27;;;10.43;;
46116;SDS011;32591;48.102;11.772;2023-10-19T02:09:02;16.63;;;9.45;;
46116;SDS011;32591;48.102;11.772;2023-10-19T02:11:43;16.75;;;10.95;;
46116;SDS011;32591;48.102;11.772;2023-10-19T02:14:11;18.30;;;10.57;;
46116;SDS011;32591;48.102;11.772;2023-10-19T02:16:40;14.27;;;9.18;;
46116;SDS011;32591;48.102;11.772;2023-10-19T02:19:06;19.48;;;10.25;;
46116;SDS011;32591;48.102;11.772;2023-10-19T02:21:33;15.43;;;9.05;;
46116;SDS011;32591;48.102;11.772;2023-10-19T02:24:05;14.90;;;9.00;;
46116;SDS011;32591;48.102;11.772;2023-10-19T02:26:32;15.80;;;10.05;;
46116;SDS011;32591;48.102;11.772;2023-10-19T02:29:02;13.27;;;9.30;;
46116;SDS011;32591;48.102;11.772;2023-10-19T02:31:33;15.02;;;9.70;;
46116;SDS011;32591;48.102;11.772;2023-10-19T02:34:03;12.70;;;8.43;;
46116;SDS011;32591;48.102;11.772;2023-10-19T02:36:30;17.00;;;9.77;;
46116;SDS011;32591;48.102;11.772;2023-10-19T02:41:25;15.02;;;9.70;;
46116;SDS011;32591;48.102;11.772;2023-10-19T02:43:52;16.45;;;10.48;;
46116;SDS011;32591;48.102;11.772;2023-10-19T02:46:32;17.83;;;10.15;;
46116;SDS011;32591;48.102;11.772;2023-10-19T02:48:59;15.57;;;10.50;;
46116;SDS011;32591;48.102;11.772;2023-10-19T02:51:28;13.70;;;9.98;;
46116;SDS011;32591;48.102;11.772;2023-10-19T02:56:24;15.52;;;8.80;;
46116;SDS011;32591;48.102;11.772;2023-10-19T02:58:52;15.13;;;9.00;;
46116;SDS011;32591;48.102;11.772;2023-10-19T03:01:19;14.50;;;8.88;;
46116;SDS011;32591;48.102;11.772;2023-10-19T03:03:51;16.80;;;9.13;;
46116;SDS011;32591;48.102;11.772;2023-10-19T03:06:20;15.43;;;9.20;;
46116;SDS011;32591;48.102;11.772;2023-10-19T03:08:48;15.25;;;9.57;;
46116;SDS011;32591;48.102;11.772;2023-10-19T03:11:22;17.90;;;9.65;;
46116;SDS011;32591;48.102;11.772;2023-10-19T03:13:49;14.25;;;9.63;;
46116;SDS011;32591;48.102;11.772;2023-10-19T03:16:16;15.57;;;8.75;;
46116;SDS011;32591;48.102;11.772;2023-10-19T03:18:44;13.93;;;9.27;;
46116;SDS011;32591;48.102;11.772;2023-10-19T03:21:11;12.80;;;7.93;;
46116;SDS011;32591;48.102;11.772;2023-10-19T03:23:39;13.15;;;8.63;;
46116;SDS011;32591;48.102;11.772;2023-10-19T03:26:05;14.45;;;8.65;;
46116;SDS011;32591;48.102;11.772;2023-10-19T03:28:55;12.38;;;8.38;;
46116;SDS011;32591;48.102;11.772;2023-10-19T03:31:22;14.23;;;8.85;;
46116;SDS011;32591;48.102;11.772;2023-10-19T03:33:50;13.05;;;8.75;;
46116;SDS011;32591;48.102;11.772;2023-10-19T03:36:25;15.05;;;9.07;;
46116;SDS011;32591;48.102;11.772;2023-10-19T03:38:53;11.65;;;8.32;;
46116;SDS011;32591;48.102;11.772;2023-10-19T03:41:24;16.98;;;9.88;;
46116;SDS011;32591;48.102;11.772;2023-10-19T03:43:54;12.75;;;8.75;;
46116;SDS011;32591;48.102;11.772;2023-10-19T03:46:23;14.77;;;9.75;;
46116;SDS011;32591;48.102;11.772;2023-10-19T03:48:54;13.20;;;8.55;;
46116;SDS011;32591;48.102;11.772;2023-10-19T03:51:26;13.65;;;8.63;;
46116;SDS011;32591;48.102;11.772;2023-10-19T03:54:04;13.05;;;8.60;;
46116;SDS011;32591;48.102;11.772;2023-10-19T03:56:34;15.50;;;8.88;;
46116;SDS011;32591;48.102;11.772;2023-10-19T03:59:02;13.43;;;8.35;;
46116;SDS011;32591;48.102;11.772;2023-10-19T04:01:31;12.98;;;8.80;;
46116;SDS011;32591;48.102;11.772;2023-10-19T04:03:58;13.40;;;8.48;;
46116;SDS011;32591;48.102;11.772;2023-10-19T04:06:27;14.40;;;8.30;;
46116;SDS011;32591;48.102;11.772;2023-10-19T04:08:54;13.13;;;8.35;;
46116;SDS011;32591;48.102;11.772;2023-10-19T04:11:22;10.75;;;7.75;;
46116;SDS011;32591;48.102;11.772;2023-10-19T04:13:57;13.25;;;7.90;;
46116;SDS011;32591;48.102;11.772;2023-10-19T04:16:29;9.85;;;7.32;;
46116;SDS011;32591;48.102;11.772;2023-10-19T04:18:57;10.63;;;8.00;;
46116;SDS011;32591;48.102;11.772;2023-10-19T04:21:24;13.00;;;8.35;;
46116;SDS011;32591;48.102;11.772;2023-10-19T04:23:53;12.98;;;8.90;;
46116;SDS011;32591;48.102;11.772;2023-10-19T04:26:22;12.57;;;8.80;;
46116;SDS011;32591;48.102;11.772;2023-10-19T04:28:50;12.52;;;8.32;;
46116;SDS011;32591;48.102;11.772;2023-10-19T04:31:17;12.38;;;8.02;;
46116;SDS011;32591;48.102;11.772;2023-10-19T04:33:44;10.93;;;7.30;;
46116;SDS011;32591;48.102;11.772;2023-10-19T04:36:15;11.88;;;7.55;;
46116;SDS011;32591;48.102;11.772;2023-10-19T04:38:46;13.13;;;7.90;;
46116;SDS011;32591;48.102;11.772;2023-10-19T04:41:14;14.48;;;8.50;;
46116;SDS011;32591;48.102;11.772;2023-10-19T04:43:41;11.07;;;7.43;;
46116;SDS011;32591;48.102;11.772;2023-10-19T04:46:15;11.38;;;7.68;;
46116;SDS011;32591;48.102;11.772;2023-10-19T04:48:43;13.43;;;8.30;;
46116;SDS011;32591;48.102;11.772;2023-10-19T04:51:12;12.45;;;7.55;;
46116;SDS011;32591;48.102;11.772;2023-10-19T04:53:38;11.07;;;7.05;;
46116;SDS011;32591;48.102;11.772;2023-10-19T04:56:07;11.73;;;8.05;;
46116;SDS011;32591;48.102;11.772;2023-10-19T04:58:36;11.50;;;7.65;;
46116;SDS011;32591;48.102;11.772;2023-10-19T05:01:03;11.95;;;7.50;;
46116;SDS011;32591;48.102;11.772;2023-10-19T05:03:30;15.80;;;8.43;;
46116;SDS011;32591;48.102;11.772;2023-10-19T05:05:59;10.95;;;7.65;;
46116;SDS011;32591;48.102;11.772;2023-10-19T05:08:27;12.70;;;8.93;;
46116;SDS011;32591;48.102;11.772;2023-10-19T05:10:54;13.00;;;8.55;;
46116;SDS011;32591;48.102;11.772;2023-10-19T05:13:24;10.57;;;7.20;;
46116;SDS011;32591;48.102;11.772;2023-10-19T05:15:53;10.45;;;7.22;;
46116;SDS011;32591;48.102;11.772;2023-10-19T05:18:21;11.25;;;7.38;;
46116;SDS011;32591;48.102;11.772;2023-10-19T05:20:49;13.50;;;8.13;;
46116;SDS011;32591;48.102;11.772;2023-10-19T05:23:20;15.43;;;8.13;;
46116;SDS011;32591;48.102;11.772;2023-10-19T05:25:49;14.05;;;8.68;;
46116;SDS011;32591;48.102;11.772;2023-10-19T05:28:17;12.23;;;7.13;;
46116;SDS011;32591;48.102;11.772;2023-10-19T05:30:47;12.45;;;7.90;;
46116;SDS011;32591;48.102;11.772;2023-10-19T05:33:16;10.93;;;7.07;;
46116;SDS011;32591;48.102;11.772;2023-10-19T05:35:46;15.48;;;7.55;;
46116;SDS011;32591;48.102;11.772;2023-10-19T05:38:13;11.85;;;6.95;;
46116;SDS011;32591;48.102;11.772;2023-10-19T05:40:40;15.70;;;7.82;;
46116;SDS011;32591;48.102;11.772;2023-10-19T05:43:08;15.43;;;7.85;;
46116;SDS011;32591;48.102;11.772;2023-10-19T05:45:35;11.80;;;7.10;;
46116;SDS011;32591;48.102;11.772;2023-10-19T05:48:02;14.20;;;7.95;;
46116;SDS011;32591;48.102;11.772;2023-10-19T05:50:33;10.85;;;8.55;;
46116;SDS011;32591;48.102;11.772;2023-10-19T05:53:00;11.90;;;7.57;;
46116;SDS011;32591;48.102;11.772;2023-10-19T05:55:28;11.07;;;7.45;;
46116;SDS011;32591;48.102;11.772;2023-10-19T05:57:56;9.48;;;6.75;;
46116;SDS011;32591;48.102;11.772;2023-10-19T06:00:23;11.90;;;7.07;;
46116;SDS011;32591;48.102;11.772;2023-10-19T06:02:51;9.77;;;6.72;;
46116;SDS011;32591;48.102;11.772;2023-10-19T06:05:19;12.55;;;8.00;;
46116;SDS011;32591;48.102;11.772;2023-10-19T06:07:48;11.07;;;7.32;;
46116;SDS011;32591;48.102;11.772;2023-10-19T06:10:17;13.25;;;6.20;;
46116;SDS011;32591;48.102;11.772;2023-10-19T06:12:45;10.68;;;7.05;;
46116;SDS011;32591;48.102;11.772;2023-10-19T06:15:15;11.18;;;7.30;;
46116;SDS011;32591;48.102;11.772;2023-10-19T06:17:43;11.30;;;7.97;;
46116;SDS011;32591;48.102;11.772;2023-10-19T06:20:13;12.40;;;7.18;;
46116;SDS011;32591;48.102;11.772;2023-10-19T06:22:51;7.82;;;5.97;;
46116;SDS011;32591;48.102;11.772;2023-10-19T06:25:21;10.57;;;6.68;;
46116;SDS011;32591;48.102;11.772;2023-10-19T06:27:50;13.10;;;7.50;;
46116;SDS011;32591;48.102;11.772;2023-10-19T06:30:18;8.45;;;6.30;;
46116;SDS011;32591;48.102;11.772;2023-10-19T06:32:48;12.07;;;6.65;;
46116;SDS011;32591;48.102;11.772;2023-10-19T06:35:17;8.43;;;5.70;;
46116;SDS011;32591;48.102;11.772;2023-10-19T06:37:45;8.88;;;5.68;;
46116;SDS011;32591;48.102;11.772;2023-10-19T06:40:14;11.30;;;6.03;;
46116;SDS011;32591;48.102;11.772;2023-10-19T06:42:43;9.10;;;5.85;;
46116;SDS011;32591;48.102;11.772;2023-10-19T06:45:11;8.95;;;5.82;;
46116;SDS011;32591;48.102;11.772;2023-10-19T06:47:40;9.55;;;6.10;;
46116;SDS011;32591;48.102;11.772;2023-10-19T06:50:10;9.20;;;6.03;;
46116;SDS011;32591;48.102;11.772;2023-10-19T06:52:38;7.93;;;6.03;;
46116;SDS011;32591;48.102;11.772;2023-10-19T06:55:06;8.27;;;6.22;;
46116;SDS011;32591;48.102;11.772;2023-10-19T06:57:40;10.43;;;6.43;;
46116;SDS011;32591;48.102;11.772;2023-10-19T07:00:09;10.77;;;7.03;;
46116;SDS011;32591;48.102;11.772;2023-10-19T07:02:41;10.52;;;6.03;;
46116;SDS011;32591;48.102;11.772;2023-10-19T07:05:09;12.82;;;6.78;;
46116;SDS011;32591;48.102;11.772;2023-10-19T07:07:37;8.48;;;6.60;;
46116;SDS011;32591;48.102;11.772;2023-10-19T07:10:06;10.27;;;5.90;;
46116;SDS011;32591;48.102;11.772;2023-10-19T07:12:35;9.70;;;6.30;;
46116;SDS011;32591;48.102;11.772;2023-10-19T07:15:04;7.75;;;5.88;;
46116;SDS011;32591;48.102;11.772;2023-10-19T07:17:33;8.07;;;5.47;;
46116;SDS011;32591;48.102;11.772;2023-10-19T07:20:01;6.70;;;4.82;;
46116;SDS011;32591;48.102;11.772;2023-10-19T07:22:31;5.85;;;4.75;;
46116;SDS011;32591;48.102;11.772;2023-10-19T07:24:58;7.50;;;4.70;;
46116;SDS011;32591;48.102;11.772;2023-10-19T07:27:25;7.60;;;5.13;;
46116;SDS011;32591;48.102;11.772;2023-10-19T07:29:53;7.93;;;5.50;;
46116;SDS011;32591;48.102;11.772;2023-10-19T07:32:23;7.63;;;4.43;;
46116;SDS011;32591;48.102;11.772;2023-10-19T07:34:50;8.10;;;5.28;;
46116;SDS011;32591;48.102;11.772;2023-10-19T07:37:17;9.23;;;4.40;;
46116;SDS011;32591;48.102;11.772;2023-10-19T07:39:46;7.40;;;4.10;;
46116;SDS011;32591;48.102;11.772;2023-10-19T07:42:17;4.72;;;3.75;;
46116;SDS011;32591;48.102;11.772;2023-10-19T07:44:45;5.35;;;3.50;;
46116;SDS011;32591;48.102;11.772;2023-10-19T07:47:13;5.53;;;3.97;;
46116;SDS011;32591;48.102;11.772;2023-10-19T07:49:42;6.35;;;4.40;;
46116;SDS011;32591;48.102;11.772;2023-10-19T07:52:09;8.30;;;5.15;;
46116;SDS011;32591;48.102;11.772;2023-10-19T07:54:36;6.18;;;4.35;;
46116;SDS011;32591;48.102;11.772;2023-10-19T07:57:03;8.25;;;3.47;;
46116;SDS011;32591;48.102;11.772;2023-10-19T07:59:31;6.97;;;4.18;;
46116;SDS011;32591;48.102;11.772;2023-10-19T08:01:58;5.80;;;3.55;;
46116;SDS011;32591;48.102;11.772;2023-10-19T08:04:27;10.60;;;3.85;;
46116;SDS011;32591;48.102;11.772;2023-10-19T08:06:56;4.93;;;3.15;;
46116;SDS011;32591;48.102;11.772;2023-10-19T08:09:23;7.55;;;4.18;;
46116;SDS011;32591;48.102;11.772;2023-10-19T08:11:56;5.45;;;2.97;;
46116;SDS011;32591;48.102;11.772;2023-10-19T08:14:24;5.45;;;2.88;;
46116;SDS011;32591;48.102;11.772;2023-10-19T08:16:50;5.32;;;3.13;;
46116;SDS011;32591;48.102;11.772;2023-10-19T08:19:18;5.50;;;3.58;;
46116;SDS011;32591;48.102;11.772;2023-10-19T08:21:45;6.47;;;3.05;;
46116;SDS011;32591;48.102;11.772;2023-10-19T08:24:14;6.05;;;3.00;;
46116;SDS011;32591;48.102;11.772;2023-10-19T08:26:43;7.45;;;3.03;;
46116;SDS011;32591;48.102;11.772;2023-10-19T08:29:11;4.63;;;2.88;;
46116;SDS011;32591;48.102;11.772;2023-10-19T08:31:39;5.30;;;2.95;;
46116;SDS011;32591;48.102;11.772;2023-10-19T08:34:06;5.25;;;2.65;;
46116;SDS011;32591;48.102;11.772;2023-10-19T08:36:35;5.65;;;2.95;;
46116;SDS011;32591;48.102;11.772;2023-10-19T08:39:03;5.72;;;3.15;;
46116;SDS011;32591;48.102;11.772;2023-10-19T08:41:32;5.18;;;2.42;;
46116;SDS011;32591;48.102;11.772;2023-10-19T08:44:05;5.13;;;2.50;;
46116;SDS011;32591;48.102;11.772;2023-10-19T08:46:36;4.88;;;2.55;;
46116;SDS011;32591;48.102;11.772;2023-10-19T08:49:08;4.32;;;2.47;;
46116;SDS011;32591;48.102;11.772;2023-10-19T08:51:37;3.92;;;2.45;;
46116;SDS011;32591;48.102;11.772;2023-10-19T08:54:06;4.65;;;3.10;;
46116;SDS011;32591;48.102;11.772;2023-10-19T08:56:37;4.88;;;2.70;;
46116;SDS011;32591;48.102;11.772;2023-10-19T08:59:06;3.45;;;2.40;;
46116;SDS011;32591;48.102;11.772;2023-10-19T09:01:33;3.78;;;2.25;;
46116;SDS011;32591;48.102;11.772;2023-10-19T09:04:01;3.60;;;2.05;;
46116;SDS011;32591;48.102;11.772;2023-10-19T09:06:30;4.03;;;2.33;;
46116;SDS011;32591;48.102;11.772;2023-10-19T09:09:06;4.43;;;2.45;;
46116;SDS011;32591;48.102;11.772;2023-10-19T09:11:40;5.15;;;2.38;;
46116;SDS011;32591;48.102;11.772;2023-10-19T09:14:07;3.83;;;2.60;;
46116;SDS011;32591;48.102;11.772;2023-10-19T09:16:34;5.50;;;3.50;;
46116;SDS011;32591;48.102;11.772;2023-10-19T09:19:02;4.95;;;2.75;;
46116;SDS011;32591;48.102;11.772;2023-10-19T09:21:30;3.92;;;2.17;;
46116;SDS011;32591;48.102;11.772;2023-10-19T09:23:58;4.28;;;2.50;;
46116;SDS011;32591;48.102;11.772;2023-10-19T09:26:25;4.07;;;2.50;;
46116;SDS011;32591;48.102;11.772;2023-10-19T09:28:53;7.25;;;3.67;;
46116;SDS011;32591;48.102;11.772;2023-10-19T09:31:20;5.40;;;3.13;;
46116;SDS011;32591;48.102;11.772;2023-10-19T09:33:49;5.65;;;3.00;;
46116;SDS011;32591;48.102;11.772;2023-10-19T09:36:18;4.38;;;2.60;;
46116;SDS011;32591;48.102;11.772;2023-10-19T09:38:47;5.50;;;2.70;;
46116;SDS011;32591;48.102;11.772;2023-10-19T09:41:17;5.97;;;2.75;;
46116;SDS011;32591;48.102;11.772;2023-10-19T09:43:47;4.95;;;2.80;;
46116;SDS011;32591;48.102;11.772;2023-10-19T09:46:20;6.25;;;3.13;;
46116;SDS011;32591;48.102;11.772;2023-10-19T09:48:49;5.32;;;3.20;;
46116;SDS011;32591;48.102;11.772;2023-10-19T09:51:17;6.63;;;3.13;;
46116;SDS011;32591;48.102;11.772;2023-10-19T09:53:47;6.05;;;3.78;;
46116;SDS011;32591;48.102;11.772;2023-10-19T09:56:26;5.20;;;3.30;;
46116;SDS011;32591;48.102;11.772;2023-10-19T09:59:02;4.40;;;2.78;;
46116;SDS011;32591;48.102;11.772;2023-10-19T10:04:38;7.13;;;3.28;;
46116;SDS011;32591;48.102;11.772;2023-10-19T10:07:06;5.28;;;3.90;;
46116;SDS011;32591;48.102;11.772;2023-10-19T10:09:35;6.35;;;3.50;;
46116;SDS011;32591;48.102;11.772;2023-10-19T10:12:21;4.95;;;3.30;;
46116;SDS011;32591;48.102;11.772;2023-10-19T10:14:54;6.65;;;3.65;;
46116;SDS011;32591;48.102;11.772;2023-10-19T10:17:26;6.07;;;3.45;;
46116;SDS011;32591;48.102;11.772;2023-10-19T10:19:54;3.88;;;2.72;;
46116;SDS011;32591;48.102;11.772;2023-10-19T10:22:24;6.22;;;3.83;;
46116;SDS011;32591;48.102;11.772;2023-10-19T10:24:55;5.05;;;3.10;;
46116;SDS011;32591;48.102;11.772;2023-10-19T10:27:22;5.78;;;3.30;;
46116;SDS011;32591;48.102;11.772;2023-10-19T10:29:54;4.18;;;2.90;;
46116;SDS011;32591;48.102;11.772;2023-10-19T10:38:19;4.80;;;2.95;;
46116;SDS011;32591;48.102;11.772;2023-10-19T10:40:47;6.18;;;3.50;;
46116;SDS011;32591;48.102;11.772;2023-10-19T10:43:16;4.63;;;3.22;;
46116;SDS011;32591;48.102;11.772;2023-10-19T10:45:45;8.93;;;3.40;;
46116;SDS011;32591;48.102;11.772;2023-10-19T10:48:13;6.50;;;3.35;;
46116;SDS011;32591;48.102;11.772;2023-10-19T10:50:41;6.18;;;3.65;;
46116;SDS011;32591;48.102;11.772;2023-10-19T10:53:11;4.18;;;2.58;;
46116;SDS011;32591;48.102;11.772;2023-10-19T10:55:40;5.75;;;3.47;;
46116;SDS011;32591;48.102;11.772;2023-10-19T10:58:07;7.90;;;4.35;;
46116;SDS011;32591;48.102;11.772;2023-10-19T11:00:34;7.53;;;3.40;;
46116;SDS011;32591;48.102;11.772;2023-10-19T11:03:08;5.32;;;3.65;;
46116;SDS011;32591;48.102;11.772;2023-10-19T11:05:37;8.73;;;5.05;;
46116;SDS011;32591;48.102;11.772;2023-10-19T11:08:05;6.93;;;3.75;;
46116;SDS011;32591;48.102;11.772;2023-10-19T11:10:35;9.55;;;5.20;;
46116;SDS011;32591;48.102;11.772;2023-10-19T11:13:03;6.50;;;3.45;;
46116;SDS011;32591;48.102;11.772;2023-10-19T11:15:31;8.02;;;4.70;;
46116;SDS011;32591;48.102;11.772;2023-10-19T11:17:59;9.30;;;3.83;;
46116;SDS011;32591;48.102;11.772;2023-10-19T11:20:26;8.75;;;4.95;;
46116;SDS011;32591;48.102;11.772;2023-10-19T11:22:55;6.30;;;3.90;;
46116;SDS011;32591;48.102;11.772;2023-10-19T11:25:26;7.13;;;3.80;;
46116;SDS011;32591;48.102;11.772;2023-10-19T11:27:54;5.25;;;2.78;;
46116;SDS011;32591;48.102;11.772;2023-10-19T11:30:24;5.40;;;3.17;;
46116;SDS011;32591;48.102;11.772;2023-10-19T11:32:54;5.82;;;3.38;;
46116;SDS011;32591;48.102;11.772;2023-10-19T11:35:23;5.35;;;3.03;;
46116;SDS011;32591;48.102;11.772;2023-10-19T11:37:52;4.93;;;2.75;;
46116;SDS011;32591;48.102;11.772;2023-10-19T11:40:22;4.95;;;3.05;;
46116;SDS011;32591;48.102;11.772;2023-10-19T11:42:50;6.80;;;3.38;;
46116;SDS011;32591;48.102;11.772;2023-10-19T11:45:21;5.07;;;3.00;;
46116;SDS011;32591;48.102;11.772;2023-10-19T11:47:49;7.38;;;3.42;;
46116;SDS011;32591;48.102;11.772;2023-10-19T11:50:16;7.68;;;2.90;;
46116;SDS011;32591;48.102;11.772;2023-10-19T11:52:45;6.05;;;3.35;;
46116;SDS011;32591;48.102;11.772;2023-10-19T11:55:14;4.68;;;2.70;;
46116;SDS011;32591;48.102;11.772;2023-10-19T11:57:42;5.07;;;2.55;;
46116;SDS011;32591;48.102;11.772;2023-10-19T12:00:10;5.45;;;2.95;;
46116;SDS011;32591;48.102;11.772;2023-10-19T12:02:45;3.55;;;2.35;;
46116;SDS011;32591;48.102;11.772;2023-10-19T12:05:12;4.20;;;2.53;;
46116;SDS011;32591;48.102;11.772;2023-10-19T12:07:39;3.90;;;2.95;;
46116;SDS011;32591;48.102;11.772;2023-10-19T12:10:06;5.32;;;2.20;;
46116;SDS011;32591;48.102;11.772;2023-10-19T12:12:37;3.15;;;1.98;;
46116;SDS011;32591;48.102;11.772;2023-10-19T12:15:04;4.05;;;2.38;;
46116;SDS011;32591;48.102;11.772;2023-10-19T12:17:33;4.05;;;2.53;;
46116;SDS011;32591;48.102;11.772;2023-10-19T12:20:01;6.85;;;2.60;;
46116;SDS011;32591;48.102;11.772;2023-10-19T12:22:31;4.38;;;2.45;;
46116;SDS011;32591;48.102;11.772;2023-10-19T12:25:03;5.85;;;2.70;;
46116;SDS011;32591;48.102;11.772;2023-10-19T12:27:31;7.40;;;2.47;;
46116;SDS011;32591;48.102;11.772;2023-10-19T12:29:59;8.00;;;2.88;;
46116;SDS011;32591;48.102;11.772;2023-10-19T12:32:38;6.28;;;2.88;;
46116;SDS011;32591;48.102;11.772;2023-10-19T12:35:06;7.63;;;2.30;;
46116;SDS011;32591;48.102;11.772;2023-10-19T12:37:36;4.00;;;2.00;;
46116;SDS011;32591;48.102;11.772;2023-10-19T12:40:11;5.00;;;2.20;;
46116;SDS011;32591;48.102;11.772;2023-10-19T12:42:51;3.13;;;2.33;;
46116;SDS011;32591;48.102;11.772;2023-10-19T12:45:21;4.57;;;1.85;;
46116;SDS011;32591;48.102;11.772;2023-10-19T12:47:48;3.40;;;1.77;;
46116;SDS011;32591;48.102;11.772;2023-10-19T12:50:17;3.38;;;1.80;;
46116;SDS011;32591;48.102;11.772;2023-10-19T12:52:47;5.88;;;1.95;;
46116;SDS011;32591;48.102;11.772;2023-10-19T12:55:15;3.50;;;1.90;;
46116;SDS011;32591;48.102;11.772;2023-10-19T12:57:43;2.97;;;1.65;;
46116;SDS011;32591;48.102;11.772;2023-10-19T13:00:10;2.30;;;1.50;;
46116;SDS011;32591;48.102;11.772;2023-10-19T13:02:52;2.92;;;1.48;;
46116;SDS011;32591;48.102;11.772;2023-10-19T13:05:25;2.95;;;1.20;;
46116;SDS011;32591;48.102;11.772;2023-10-19T13:07:53;3.92;;;1.52;;
46116;SDS011;32591;48.102;11.772;2023-10-19T13:10:23;2.58;;;1.00;;
46116;SDS011;32591;48.102;11.772;2023-10-19T13:12:58;3.25;;;1.40;;
46116;SDS011;32591;48.102;11.772;2023-10-19T13:15:28;2.70;;;1.52;;
46116;SDS011;32591;48.102;11.772;2023-10-19T13:17:58;2.63;;;0.93;;
46116;SDS011;32591;48.102;11.772;2023-10-19T13:20:25;2.47;;;1.35;;
46116;SDS011;32591;48.102;11.772;2023-10-19T13:22:53;1.88;;;1.27;;
46116;SDS011;32591;48.102;11.772;2023-10-19T13:25:22;4.28;;;1.63;;
46116;SDS011;32591;48.102;11.772;2023-10-19T13:28:05;3.08;;;1.50;;
46116;SDS011;32591;48.102;11.772;2023-10-19T13:30:37;2.42;;;1.50;;
46116;SDS011;32591;48.102;11.772;2023-10-19T13:33:07;4.90;;;2.20;;
46116;SDS011;32591;48.102;11.772;2023-10-19T13:35:36;2.85;;;1.73;;
46116;SDS011;32591;48.102;11.772;2023-10-19T13:38:04;2.97;;;1.30;;
46116;SDS011;32591;48.102;11.772;2023-10-19T13:40:33;2.38;;;1.42;;
46116;SDS011;32591;48.102;11.772;2023-10-19T13:43:01;3.28;;;1.55;;
46116;SDS011;32591;48.102;11.772;2023-10-19T13:45:31;2.85;;;1.55;;
46116;SDS011;32591;48.102;11.772;2023-10-19T13:48:00;2.33;;;1.40;;
46116;SDS011;32591;48.102;11.772;2023-10-19T13:50:29;3.95;;;1.73;;
46116;SDS011;32591;48.102;11.772;2023-10-19T13:52:57;4.38;;;1.55;;
46116;SDS011;32591;48.102;11.772;2023-10-19T13:55:25;3.40;;;1.90;;
46116;SDS011;32591;48.102;11.772;2023-10-19T13:57:53;3.65;;;1.83;;
46116;SDS011;32591;48.102;11.772;2023-10-19T14:00:24;3.45;;;1.52;;
46116;SDS011;32591;48.102;11.772;2023-10-19T14:02:56;3.38;;;1.90;;
46116;SDS011;32591;48.102;11.772;2023-10-19T14:05:24;3.55;;;1.60;;
46116;SDS011;32591;48.102;11.772;2023-10-19T14:07:52;4.07;;;2.08;;
46116;SDS011;32591;48.102;11.772;2023-10-19T14:10:19;3.72;;;1.90;;
46116;SDS011;32591;48.102;11.772;2023-10-19T14:12:50;2.85;;;1.92;;
46116;SDS011;32591;48.102;11.772;2023-10-19T14:15:17;3.90;;;2.17;;
46116;SDS011;32591;48.102;11.772;2023-10-19T14:17:46;3.47;;;2.03;;
46116;SDS011;32591;48.102;11.772;2023-10-19T14:20:16;3.30;;;2.15;;
46116;SDS011;32591;48.102;11.772;2023-10-19T14:22:44;5.43;;;2.40;;
46116;SDS011;32591;48.102;11.772;2023-10-19T14:25:16;6.47;;;2.10;;
46116;SDS011;32591;48.102;11.772;2023-10-19T14:27:46;4.15;;;2.30;;
46116;SDS011;32591;48.102;11.772;2023-10-19T14:30:14;4.63;;;2.53;;
46116;SDS011;32591;48.102;11.772;2023-10-19T14:32:45;4.13;;;2.45;;
46116;SDS011;32591;48.102;11.772;2023-10-19T14:35:14;7.25;;;3.13;;
46116;SDS011;32591;48.102;11.772;2023-10-19T14:37:43;4.80;;;2.95;;
46116;SDS011;32591;48.102;11.772;2023-10-19T14:40:13;5.25;;;3.30;;
46116;SDS011;32591;48.102;11.772;2023-10-19T14:42:45;5.55;;;3.70;;
46116;SDS011;32591;48.102;11.772;2023-10-19T14:45:13;5.82;;;3.40;;
46116;SDS011;32591;48.102;11.772;2023-10-19T14:47:46;7.10;;;3.33;;
46116;SDS011;32591;48.102;11.772;2023-10-19T14:50:17;9.32;;;3.33;;
46116;SDS011;32591;48.102;11.772;2023-10-19T14:52:45;6.43;;;3.88;;